Austin, Nevada
Current Conditions -  °F | °C
As of 8:20 PM on Tuesday 25 Nov 2014 (Local Time) from K05U Reporting Station
Clear Clear  
Wind Chill: -4°   Ceiling: Unl
Heat Index:   Visibility: 10mi
Dew Point: -4°   Wind: 8mph
Humidity: 75%   Direction: 160°SSE
Pressure: 30.48"   Gusts: NA
Location:  39.49°N, 117.07°W
Report Text: K05U 260420Z AUTO 16007KT 10SM CLR 00/M04 A3048 RMK AO1
Loading
Personal Weather Stations






























Interactive Weather Map New forecast layout! Learn more

10-Day Weather Forecast

Advertisements
Track Severe Weather on mobile